sensor_id;sensor_type;location;lat;lon;timestamp;P1;durP1;ratioP1;P2;durP2;ratioP2
13218;SDS011;6674;49.152;11.918;2022-12-13T00:00:27;7.83;;;6.50;;
13218;SDS011;6674;49.152;11.918;2022-12-13T00:02:54;9.40;;;6.73;;
13218;SDS011;6674;49.152;11.918;2022-12-13T00:05:21;9.77;;;7.37;;
13218;SDS011;6674;49.152;11.918;2022-12-13T00:07:48;11.03;;;7.60;;
13218;SDS011;6674;49.152;11.918;2022-12-13T00:10:15;11.53;;;7.23;;
13218;SDS011;6674;49.152;11.918;2022-12-13T00:12:41;10.03;;;7.13;;
13218;SDS011;6674;49.152;11.918;2022-12-13T00:15:10;12.00;;;8.70;;
13218;SDS011;6674;49.152;11.918;2022-12-13T00:17:37;9.90;;;7.17;;
13218;SDS011;6674;49.152;11.918;2022-12-13T00:20:04;11.30;;;7.23;;
13218;SDS011;6674;49.152;11.918;2022-12-13T00:22:30;11.00;;;8.13;;
13218;SDS011;6674;49.152;11.918;2022-12-13T00:24:57;12.50;;;8.57;;
13218;SDS011;6674;49.152;11.918;2022-12-13T00:27:24;10.00;;;7.27;;
13218;SDS011;6674;49.152;11.918;2022-12-13T00:29:51;10.93;;;7.47;;
13218;SDS011;6674;49.152;11.918;2022-12-13T00:32:19;11.30;;;8.13;;
13218;SDS011;6674;49.152;11.918;2022-12-13T00:34:45;8.83;;;6.70;;
13218;SDS011;6674;49.152;11.918;2022-12-13T00:37:12;12.67;;;8.43;;
13218;SDS011;6674;49.152;11.918;2022-12-13T00:39:38;16.30;;;9.00;;
13218;SDS011;6674;49.152;11.918;2022-12-13T00:42:06;13.67;;;9.03;;
13218;SDS011;6674;49.152;11.918;2022-12-13T00:44:32;11.37;;;8.37;;
13218;SDS011;6674;49.152;11.918;2022-12-13T00:46:59;10.10;;;7.47;;
13218;SDS011;6674;49.152;11.918;2022-12-13T00:49:27;11.47;;;8.00;;
13218;SDS011;6674;49.152;11.918;2022-12-13T00:51:54;12.53;;;8.40;;
13218;SDS011;6674;49.152;11.918;2022-12-13T00:54:20;10.63;;;7.80;;
13218;SDS011;6674;49.152;11.918;2022-12-13T00:56:47;15.63;;;10.03;;
13218;SDS011;6674;49.152;11.918;2022-12-13T00:59:15;17.53;;;11.47;;
13218;SDS011;6674;49.152;11.918;2022-12-13T01:01:42;15.03;;;9.40;;
13218;SDS011;6674;49.152;11.918;2022-12-13T01:04:09;13.53;;;8.23;;
13218;SDS011;6674;49.152;11.918;2022-12-13T01:06:38;10.00;;;7.43;;
13218;SDS011;6674;49.152;11.918;2022-12-13T01:09:07;10.83;;;7.77;;
13218;SDS011;6674;49.152;11.918;2022-12-13T01:11:37;10.33;;;7.83;;
13218;SDS011;6674;49.152;11.918;2022-12-13T01:14:04;15.27;;;10.27;;
13218;SDS011;6674;49.152;11.918;2022-12-13T01:16:30;12.90;;;9.13;;
13218;SDS011;6674;49.152;11.918;2022-12-13T01:18:57;12.43;;;8.07;;
13218;SDS011;6674;49.152;11.918;2022-12-13T01:21:24;11.13;;;8.07;;
13218;SDS011;6674;49.152;11.918;2022-12-13T01:23:52;12.23;;;8.57;;
13218;SDS011;6674;49.152;11.918;2022-12-13T01:26:21;10.13;;;7.60;;
13218;SDS011;6674;49.152;11.918;2022-12-13T01:28:48;10.07;;;7.43;;
13218;SDS011;6674;49.152;11.918;2022-12-13T01:31:15;10.40;;;7.50;;
13218;SDS011;6674;49.152;11.918;2022-12-13T01:33:46;8.60;;;6.50;;
13218;SDS011;6674;49.152;11.918;2022-12-13T01:36:14;11.53;;;8.03;;
13218;SDS011;6674;49.152;11.918;2022-12-13T01:38:42;10.73;;;7.77;;
13218;SDS011;6674;49.152;11.918;2022-12-13T01:41:11;11.60;;;8.40;;
13218;SDS011;6674;49.152;11.918;2022-12-13T01:43:49;18.27;;;11.07;;
13218;SDS011;6674;49.152;11.918;2022-12-13T01:46:21;52.03;;;28.00;;
13218;SDS011;6674;49.152;11.918;2022-12-13T01:48:50;40.63;;;24.80;;
13218;SDS011;6674;49.152;11.918;2022-12-13T01:51:20;49.83;;;29.17;;
13218;SDS011;6674;49.152;11.918;2022-12-13T01:53:52;44.03;;;25.67;;
13218;SDS011;6674;49.152;11.918;2022-12-13T01:56:26;33.00;;;19.63;;
13218;SDS011;6674;49.152;11.918;2022-12-13T01:58:57;25.70;;;15.60;;
13218;SDS011;6674;49.152;11.918;2022-12-13T02:01:25;25.20;;;15.50;;
13218;SDS011;6674;49.152;11.918;2022-12-13T02:03:53;16.30;;;10.70;;
13218;SDS011;6674;49.152;11.918;2022-12-13T02:06:22;11.83;;;8.73;;
13218;SDS011;6674;49.152;11.918;2022-12-13T02:08:53;16.27;;;10.77;;
13218;SDS011;6674;49.152;11.918;2022-12-13T02:11:19;12.80;;;8.50;;
13218;SDS011;6674;49.152;11.918;2022-12-13T02:13:48;12.20;;;7.93;;
13218;SDS011;6674;49.152;11.918;2022-12-13T02:16:18;10.83;;;7.70;;
13218;SDS011;6674;49.152;11.918;2022-12-13T02:19:01;11.60;;;7.23;;
13218;SDS011;6674;49.152;11.918;2022-12-13T02:21:49;11.90;;;8.40;;
13218;SDS011;6674;49.152;11.918;2022-12-13T02:24:37;9.07;;;6.53;;
13218;SDS011;6674;49.152;11.918;2022-12-13T02:27:29;12.53;;;8.47;;
13218;SDS011;6674;49.152;11.918;2022-12-13T02:33:07;10.17;;;7.87;;
13218;SDS011;6674;49.152;11.918;2022-12-13T02:35:43;12.57;;;8.90;;
13218;SDS011;6674;49.152;11.918;2022-12-13T02:38:17;12.73;;;8.80;;
13218;SDS011;6674;49.152;11.918;2022-12-13T02:40:53;13.70;;;9.27;;
13218;SDS011;6674;49.152;11.918;2022-12-13T02:43:24;13.10;;;8.30;;
13218;SDS011;6674;49.152;11.918;2022-12-13T02:45:58;12.83;;;8.67;;
13218;SDS011;6674;49.152;11.918;2022-12-13T02:48:27;12.13;;;9.50;;
13218;SDS011;6674;49.152;11.918;2022-12-13T02:50:57;14.90;;;10.07;;
13218;SDS011;6674;49.152;11.918;2022-12-13T02:53:25;11.87;;;8.50;;
13218;SDS011;6674;49.152;11.918;2022-12-13T02:55:52;13.77;;;9.10;;
13218;SDS011;6674;49.152;11.918;2022-12-13T02:58:22;14.43;;;9.97;;
13218;SDS011;6674;49.152;11.918;2022-12-13T03:00:54;76.27;;;40.57;;
13218;SDS011;6674;49.152;11.918;2022-12-13T03:03:36;42.27;;;27.33;;
13218;SDS011;6674;49.152;11.918;2022-12-13T03:06:14;32.23;;;20.87;;
13218;SDS011;6674;49.152;11.918;2022-12-13T03:08:56;40.30;;;27.70;;
13218;SDS011;6674;49.152;11.918;2022-12-13T03:11:38;57.17;;;37.30;;
13218;SDS011;6674;49.152;11.918;2022-12-13T03:14:35;45.83;;;31.53;;
13218;SDS011;6674;49.152;11.918;2022-12-13T03:17:08;17.37;;;11.97;;
13218;SDS011;6674;49.152;11.918;2022-12-13T03:19:35;10.83;;;7.50;;
13218;SDS011;6674;49.152;11.918;2022-12-13T03:22:04;12.00;;;8.17;;
13218;SDS011;6674;49.152;11.918;2022-12-13T03:24:31;14.13;;;9.90;;
13218;SDS011;6674;49.152;11.918;2022-12-13T03:26:58;15.23;;;11.87;;
13218;SDS011;6674;49.152;11.918;2022-12-13T03:29:24;11.63;;;8.63;;
13218;SDS011;6674;49.152;11.918;2022-12-13T03:31:51;18.17;;;12.97;;
13218;SDS011;6674;49.152;11.918;2022-12-13T03:34:19;22.93;;;14.87;;
13218;SDS011;6674;49.152;11.918;2022-12-13T03:36:46;26.73;;;17.70;;
13218;SDS011;6674;49.152;11.918;2022-12-13T03:39:13;16.17;;;11.70;;
13218;SDS011;6674;49.152;11.918;2022-12-13T03:41:39;11.43;;;8.27;;
13218;SDS011;6674;49.152;11.918;2022-12-13T03:44:06;11.27;;;8.00;;
13218;SDS011;6674;49.152;11.918;2022-12-13T03:46:33;11.70;;;7.80;;
13218;SDS011;6674;49.152;11.918;2022-12-13T03:49:00;12.23;;;8.33;;
13218;SDS011;6674;49.152;11.918;2022-12-13T03:51:28;10.17;;;7.57;;
13218;SDS011;6674;49.152;11.918;2022-12-13T03:53:55;10.97;;;7.90;;
13218;SDS011;6674;49.152;11.918;2022-12-13T03:56:21;10.20;;;7.10;;
13218;SDS011;6674;49.152;11.918;2022-12-13T03:58:48;11.87;;;7.90;;
13218;SDS011;6674;49.152;11.918;2022-12-13T04:01:15;12.37;;;8.60;;
13218;SDS011;6674;49.152;11.918;2022-12-13T04:03:43;13.37;;;9.47;;
13218;SDS011;6674;49.152;11.918;2022-12-13T04:06:11;14.03;;;9.90;;
13218;SDS011;6674;49.152;11.918;2022-12-13T04:08:39;11.10;;;8.50;;
13218;SDS011;6674;49.152;11.918;2022-12-13T04:11:09;12.47;;;9.43;;
13218;SDS011;6674;49.152;11.918;2022-12-13T04:13:53;11.67;;;8.43;;
13218;SDS011;6674;49.152;11.918;2022-12-13T04:16:21;9.70;;;7.27;;
13218;SDS011;6674;49.152;11.918;2022-12-13T04:18:48;10.10;;;7.40;;
13218;SDS011;6674;49.152;11.918;2022-12-13T04:21:15;10.40;;;7.00;;
13218;SDS011;6674;49.152;11.918;2022-12-13T04:23:43;10.50;;;6.80;;
13218;SDS011;6674;49.152;11.918;2022-12-13T04:26:10;10.67;;;7.00;;
13218;SDS011;6674;49.152;11.918;2022-12-13T04:28:37;12.87;;;8.67;;
13218;SDS011;6674;49.152;11.918;2022-12-13T04:31:04;14.10;;;9.57;;
13218;SDS011;6674;49.152;11.918;2022-12-13T04:33:30;13.07;;;8.87;;
13218;SDS011;6674;49.152;11.918;2022-12-13T04:35:57;11.13;;;7.50;;
13218;SDS011;6674;49.152;11.918;2022-12-13T04:38:24;14.07;;;9.53;;
13218;SDS011;6674;49.152;11.918;2022-12-13T04:40:52;16.67;;;10.83;;
13218;SDS011;6674;49.152;11.918;2022-12-13T04:43:29;14.33;;;9.73;;
13218;SDS011;6674;49.152;11.918;2022-12-13T04:45:55;15.13;;;9.57;;
13218;SDS011;6674;49.152;11.918;2022-12-13T04:48:22;15.87;;;10.27;;
13218;SDS011;6674;49.152;11.918;2022-12-13T04:50:49;15.70;;;9.67;;
13218;SDS011;6674;49.152;11.918;2022-12-13T04:53:16;14.43;;;9.83;;
13218;SDS011;6674;49.152;11.918;2022-12-13T04:55:42;14.57;;;9.83;;
13218;SDS011;6674;49.152;11.918;2022-12-13T04:58:10;19.00;;;11.60;;
13218;SDS011;6674;49.152;11.918;2022-12-13T05:00:38;15.83;;;10.30;;
13218;SDS011;6674;49.152;11.918;2022-12-13T05:03:05;24.83;;;13.43;;
13218;SDS011;6674;49.152;11.918;2022-12-13T05:05:31;17.60;;;11.57;;
13218;SDS011;6674;49.152;11.918;2022-12-13T05:07:58;20.07;;;13.00;;
13218;SDS011;6674;49.152;11.918;2022-12-13T05:10:25;19.00;;;11.80;;
13218;SDS011;6674;49.152;11.918;2022-12-13T05:12:51;28.23;;;13.73;;
13218;SDS011;6674;49.152;11.918;2022-12-13T05:15:19;17.63;;;12.10;;
13218;SDS011;6674;49.152;11.918;2022-12-13T05:17:46;21.27;;;13.20;;
13218;SDS011;6674;49.152;11.918;2022-12-13T05:20:13;22.13;;;13.33;;
13218;SDS011;6674;49.152;11.918;2022-12-13T05:22:39;18.27;;;11.93;;
13218;SDS011;6674;49.152;11.918;2022-12-13T05:25:06;20.77;;;12.77;;
13218;SDS011;6674;49.152;11.918;2022-12-13T05:27:33;18.67;;;11.93;;
13218;SDS011;6674;49.152;11.918;2022-12-13T05:30:00;19.83;;;11.87;;
13218;SDS011;6674;49.152;11.918;2022-12-13T05:32:29;16.70;;;11.17;;
13218;SDS011;6674;49.152;11.918;2022-12-13T05:34:57;20.20;;;12.67;;
13218;SDS011;6674;49.152;11.918;2022-12-13T05:37:24;18.97;;;11.97;;
13218;SDS011;6674;49.152;11.918;2022-12-13T05:39:50;23.47;;;13.07;;
13218;SDS011;6674;49.152;11.918;2022-12-13T05:42:17;19.60;;;12.57;;
13218;SDS011;6674;49.152;11.918;2022-12-13T05:44:44;19.33;;;11.90;;
13218;SDS011;6674;49.152;11.918;2022-12-13T05:47:10;18.63;;;11.70;;
13218;SDS011;6674;49.152;11.918;2022-12-13T05:49:38;20.23;;;12.00;;
13218;SDS011;6674;49.152;11.918;2022-12-13T05:52:05;18.60;;;11.80;;
13218;SDS011;6674;49.152;11.918;2022-12-13T05:54:32;18.90;;;12.37;;
13218;SDS011;6674;49.152;11.918;2022-12-13T05:56:58;20.70;;;12.03;;
13218;SDS011;6674;49.152;11.918;2022-12-13T05:59:25;18.43;;;11.47;;
13218;SDS011;6674;49.152;11.918;2022-12-13T06:01:51;18.43;;;10.07;;
13218;SDS011;6674;49.152;11.918;2022-12-13T06:04:18;16.73;;;11.07;;
13218;SDS011;6674;49.152;11.918;2022-12-13T06:06:46;17.97;;;11.07;;
13218;SDS011;6674;49.152;11.918;2022-12-13T06:09:13;17.00;;;10.83;;
13218;SDS011;6674;49.152;11.918;2022-12-13T06:11:39;15.57;;;10.93;;
13218;SDS011;6674;49.152;11.918;2022-12-13T06:14:06;19.03;;;13.10;;
13218;SDS011;6674;49.152;11.918;2022-12-13T06:16:33;17.27;;;12.40;;
13218;SDS011;6674;49.152;11.918;2022-12-13T06:18:59;16.50;;;11.43;;
13218;SDS011;6674;49.152;11.918;2022-12-13T06:21:26;16.97;;;10.73;;
13218;SDS011;6674;49.152;11.918;2022-12-13T06:23:54;16.00;;;9.97;;
13218;SDS011;6674;49.152;11.918;2022-12-13T06:26:21;14.40;;;10.47;;
13218;SDS011;6674;49.152;11.918;2022-12-13T06:28:48;17.90;;;10.73;;
13218;SDS011;6674;49.152;11.918;2022-12-13T06:31:14;13.83;;;9.83;;
13218;SDS011;6674;49.152;11.918;2022-12-13T06:33:41;15.27;;;9.90;;
13218;SDS011;6674;49.152;11.918;2022-12-13T06:36:08;16.17;;;10.30;;
13218;SDS011;6674;49.152;11.918;2022-12-13T06:38:35;18.43;;;11.27;;
13218;SDS011;6674;49.152;11.918;2022-12-13T06:41:07;22.47;;;14.93;;
13218;SDS011;6674;49.152;11.918;2022-12-13T06:43:34;26.13;;;17.03;;
13218;SDS011;6674;49.152;11.918;2022-12-13T06:46:02;39.30;;;21.93;;
13218;SDS011;6674;49.152;11.918;2022-12-13T06:48:30;49.00;;;28.37;;
13218;SDS011;6674;49.152;11.918;2022-12-13T06:50:58;43.77;;;27.30;;
13218;SDS011;6674;49.152;11.918;2022-12-13T06:53:26;29.73;;;19.90;;
13218;SDS011;6674;49.152;11.918;2022-12-13T06:55:53;21.70;;;14.50;;
13218;SDS011;6674;49.152;11.918;2022-12-13T06:58:21;16.63;;;11.10;;
13218;SDS011;6674;49.152;11.918;2022-12-13T07:00:47;14.60;;;8.90;;
13218;SDS011;6674;49.152;11.918;2022-12-13T07:03:14;13.33;;;9.87;;
13218;SDS011;6674;49.152;11.918;2022-12-13T07:05:40;14.63;;;9.50;;
13218;SDS011;6674;49.152;11.918;2022-12-13T07:08:08;13.73;;;8.93;;
13218;SDS011;6674;49.152;11.918;2022-12-13T07:10:36;13.73;;;9.37;;
13218;SDS011;6674;49.152;11.918;2022-12-13T07:13:04;12.63;;;8.60;;
13218;SDS011;6674;49.152;11.918;2022-12-13T07:15:33;14.50;;;9.13;;
13218;SDS011;6674;49.152;11.918;2022-12-13T07:18:03;13.87;;;9.27;;
13218;SDS011;6674;49.152;11.918;2022-12-13T07:20:30;16.07;;;9.73;;
13218;SDS011;6674;49.152;11.918;2022-12-13T07:22:57;13.93;;;9.20;;
13218;SDS011;6674;49.152;11.918;2022-12-13T07:25:23;15.43;;;9.83;;
13218;SDS011;6674;49.152;11.918;2022-12-13T07:27:54;13.63;;;8.90;;
13218;SDS011;6674;49.152;11.918;2022-12-13T07:30:22;13.53;;;9.23;;
13218;SDS011;6674;49.152;11.918;2022-12-13T07:32:49;14.27;;;9.33;;
13218;SDS011;6674;49.152;11.918;2022-12-13T07:35:16;14.93;;;9.20;;
13218;SDS011;6674;49.152;11.918;2022-12-13T07:37:43;14.97;;;9.50;;
13218;SDS011;6674;49.152;11.918;2022-12-13T07:40:10;14.17;;;8.60;;
13218;SDS011;6674;49.152;11.918;2022-12-13T07:42:37;13.77;;;8.13;;
13218;SDS011;6674;49.152;11.918;2022-12-13T07:45:04;12.03;;;8.33;;
13218;SDS011;6674;49.152;11.918;2022-12-13T07:47:31;12.83;;;8.53;;
13218;SDS011;6674;49.152;11.918;2022-12-13T07:49:59;14.70;;;9.20;;
13218;SDS011;6674;49.152;11.918;2022-12-13T07:52:25;11.20;;;8.27;;
13218;SDS011;6674;49.152;11.918;2022-12-13T07:54:52;14.23;;;8.97;;
13218;SDS011;6674;49.152;11.918;2022-12-13T07:57:19;16.17;;;9.00;;
13218;SDS011;6674;49.152;11.918;2022-12-13T07:59:45;11.03;;;8.27;;
13218;SDS011;6674;49.152;11.918;2022-12-13T08:02:12;10.93;;;8.10;;
13218;SDS011;6674;49.152;11.918;2022-12-13T08:04:39;11.77;;;8.97;;
13218;SDS011;6674;49.152;11.918;2022-12-13T08:07:09;10.00;;;7.40;;
13218;SDS011;6674;49.152;11.918;2022-12-13T08:09:36;10.80;;;7.97;;
13218;SDS011;6674;49.152;11.918;2022-12-13T08:12:03;11.57;;;8.03;;
13218;SDS011;6674;49.152;11.918;2022-12-13T08:14:30;11.90;;;8.23;;
13218;SDS011;6674;49.152;11.918;2022-12-13T08:16:57;12.43;;;8.40;;
13218;SDS011;6674;49.152;11.918;2022-12-13T08:19:24;12.03;;;8.23;;
13218;SDS011;6674;49.152;11.918;2022-12-13T08:21:50;13.87;;;8.33;;
13218;SDS011;6674;49.152;11.918;2022-12-13T08:24:18;11.80;;;8.47;;
13218;SDS011;6674;49.152;11.918;2022-12-13T08:26:45;12.63;;;7.80;;
13218;SDS011;6674;49.152;11.918;2022-12-13T08:29:12;12.30;;;8.57;;
13218;SDS011;6674;49.152;11.918;2022-12-13T08:31:39;14.87;;;9.13;;
13218;SDS011;6674;49.152;11.918;2022-12-13T08:34:06;22.90;;;13.60;;
13218;SDS011;6674;49.152;11.918;2022-12-13T08:36:33;41.57;;;24.90;;
13218;SDS011;6674;49.152;11.918;2022-12-13T08:38:59;34.93;;;20.90;;
13218;SDS011;6674;49.152;11.918;2022-12-13T08:41:28;26.80;;;16.03;;
13218;SDS011;6674;49.152;11.918;2022-12-13T08:43:55;22.90;;;14.97;;
13218;SDS011;6674;49.152;11.918;2022-12-13T08:46:22;24.93;;;14.93;;
13218;SDS011;6674;49.152;11.918;2022-12-13T08:48:48;18.00;;;11.43;;
13218;SDS011;6674;49.152;11.918;2022-12-13T08:51:17;25.13;;;17.80;;
13218;SDS011;6674;49.152;11.918;2022-12-13T08:53:48;18.90;;;13.90;;
13218;SDS011;6674;49.152;11.918;2022-12-13T08:56:15;17.07;;;11.80;;
13218;SDS011;6674;49.152;11.918;2022-12-13T08:58:47;25.40;;;16.07;;
13218;SDS011;6674;49.152;11.918;2022-12-13T09:01:15;16.70;;;11.43;;
13218;SDS011;6674;49.152;11.918;2022-12-13T09:03:43;16.33;;;11.70;;
13218;SDS011;6674;49.152;11.918;2022-12-13T09:06:11;14.63;;;10.50;;
13218;SDS011;6674;49.152;11.918;2022-12-13T09:08:39;18.93;;;13.67;;
13218;SDS011;6674;49.152;11.918;2022-12-13T09:11:06;13.67;;;9.87;;
13218;SDS011;6674;49.152;11.918;2022-12-13T09:13:34;13.00;;;9.33;;
13218;SDS011;6674;49.152;11.918;2022-12-13T09:16:05;12.53;;;9.57;;
13218;SDS011;6674;49.152;11.918;2022-12-13T09:18:33;11.60;;;8.10;;
13218;SDS011;6674;49.152;11.918;2022-12-13T09:21:04;12.90;;;9.83;;
13218;SDS011;6674;49.152;11.918;2022-12-13T09:23:31;10.93;;;8.20;;
13218;SDS011;6674;49.152;11.918;2022-12-13T09:25:58;10.53;;;7.90;;
13218;SDS011;6674;49.152;11.918;2022-12-13T09:28:25;11.70;;;8.23;;
13218;SDS011;6674;49.152;11.918;2022-12-13T09:30:53;11.03;;;7.80;;
13218;SDS011;6674;49.152;11.918;2022-12-13T09:33:22;12.77;;;8.47;;
13218;SDS011;6674;49.152;11.918;2022-12-13T09:35:49;12.67;;;8.53;;
13218;SDS011;6674;49.152;11.918;2022-12-13T09:38:16;13.13;;;11.70;;
13218;SDS011;6674;49.152;11.918;2022-12-13T09:40:43;10.20;;;8.30;;
13218;SDS011;6674;49.152;11.918;2022-12-13T09:43:12;11.87;;;8.93;;
13218;SDS011;6674;49.152;11.918;2022-12-13T09:45:45;12.37;;;9.03;;
13218;SDS011;6674;49.152;11.918;2022-12-13T09:48:13;10.50;;;9.10;;
13218;SDS011;6674;49.152;11.918;2022-12-13T09:50:44;19.73;;;17.63;;
13218;SDS011;6674;49.152;11.918;2022-12-13T09:53:10;13.70;;;11.20;;
13218;SDS011;6674;49.152;11.918;2022-12-13T09:55:43;10.20;;;9.10;;
13218;SDS011;6674;49.152;11.918;2022-12-13T09:58:12;11.80;;;10.33;;
13218;SDS011;6674;49.152;11.918;2022-12-13T10:00:42;9.70;;;8.57;;
13218;SDS011;6674;49.152;11.918;2022-12-13T10:03:11;8.67;;;7.17;;
13218;SDS011;6674;49.152;11.918;2022-12-13T10:05:40;9.80;;;7.37;;
13218;SDS011;6674;49.152;11.918;2022-12-13T10:08:11;9.77;;;7.77;;
13218;SDS011;6674;49.152;11.918;2022-12-13T10:10:40;10.67;;;7.97;;
13218;SDS011;6674;49.152;11.918;2022-12-13T10:13:10;8.63;;;6.90;;
13218;SDS011;6674;49.152;11.918;2022-12-13T10:15:43;11.67;;;7.30;;
13218;SDS011;6674;49.152;11.918;2022-12-13T10:18:15;9.23;;;6.90;;
13218;SDS011;6674;49.152;11.918;2022-12-13T10:20:50;9.30;;;7.53;;
13218;SDS011;6674;49.152;11.918;2022-12-13T10:23:18;9.57;;;6.93;;
13218;SDS011;6674;49.152;11.918;2022-12-13T10:25:46;10.07;;;7.40;;
13218;SDS011;6674;49.152;11.918;2022-12-13T10:28:15;10.10;;;7.33;;
13218;SDS011;6674;49.152;11.918;2022-12-13T10:30:43;11.63;;;7.20;;
13218;SDS011;6674;49.152;11.918;2022-12-13T10:33:18;8.87;;;7.17;;
13218;SDS011;6674;49.152;11.918;2022-12-13T10:36:01;10.30;;;6.93;;
13218;SDS011;6674;49.152;11.918;2022-12-13T10:38:36;8.47;;;6.83;;
13218;SDS011;6674;49.152;11.918;2022-12-13T10:46:47;9.27;;;6.70;;
13218;SDS011;6674;49.152;11.918;2022-12-13T10:49:20;10.17;;;7.80;;
13218;SDS011;6674;49.152;11.918;2022-12-13T10:51:50;7.90;;;6.30;;
13218;SDS011;6674;49.152;11.918;2022-12-13T10:54:21;9.07;;;6.50;;
13218;SDS011;6674;49.152;11.918;2022-12-13T10:56:52;8.47;;;6.63;;
13218;SDS011;6674;49.152;11.918;2022-12-13T10:59:25;9.23;;;6.90;;
13218;SDS011;6674;49.152;11.918;2022-12-13T11:01:56;8.03;;;5.93;;
13218;SDS011;6674;49.152;11.918;2022-12-13T11:04:23;8.60;;;6.73;;
13218;SDS011;6674;49.152;11.918;2022-12-13T11:06:55;8.73;;;6.67;;
13218;SDS011;6674;49.152;11.918;2022-12-13T11:09:24;9.30;;;7.00;;
13218;SDS011;6674;49.152;11.918;2022-12-13T11:11:52;7.97;;;6.57;;
13218;SDS011;6674;49.152;11.918;2022-12-13T11:14:21;7.77;;;6.73;;
13218;SDS011;6674;49.152;11.918;2022-12-13T11:16:51;8.10;;;6.83;;
13218;SDS011;6674;49.152;11.918;2022-12-13T11:19:23;8.13;;;6.90;;
13218;SDS011;6674;49.152;11.918;2022-12-13T11:21:52;7.30;;;6.17;;
13218;SDS011;6674;49.152;11.918;2022-12-13T11:24:21;9.00;;;6.63;;
13218;SDS011;6674;49.152;11.918;2022-12-13T11:26:52;7.67;;;6.07;;
13218;SDS011;6674;49.152;11.918;2022-12-13T11:32:20;7.03;;;5.83;;
13218;SDS011;6674;49.152;11.918;2022-12-13T11:35:00;6.43;;;5.30;;
13218;SDS011;6674;49.152;11.918;2022-12-13T11:37:36;7.83;;;6.10;;
13218;SDS011;6674;49.152;11.918;2022-12-13T11:40:12;7.53;;;5.50;;
13218;SDS011;6674;49.152;11.918;2022-12-13T11:42:42;6.90;;;6.20;;
13218;SDS011;6674;49.152;11.918;2022-12-13T11:45:14;7.67;;;6.07;;
13218;SDS011;6674;49.152;11.918;2022-12-13T11:47:45;7.30;;;5.90;;
13218;SDS011;6674;49.152;11.918;2022-12-13T11:50:16;6.97;;;5.73;;
13218;SDS011;6674;49.152;11.918;2022-12-13T11:52:45;6.23;;;5.50;;
13218;SDS011;6674;49.152;11.918;2022-12-13T11:55:20;7.37;;;5.63;;
13218;SDS011;6674;49.152;11.918;2022-12-13T11:57:53;7.03;;;5.73;;
13218;SDS011;6674;49.152;11.918;2022-12-13T12:00:29;7.03;;;6.00;;
13218;SDS011;6674;49.152;11.918;2022-12-13T12:02:59;6.43;;;5.73;;
13218;SDS011;6674;49.152;11.918;2022-12-13T12:05:33;5.50;;;5.00;;
13218;SDS011;6674;49.152;11.918;2022-12-13T12:08:04;6.43;;;5.67;;
13218;SDS011;6674;49.152;11.918;2022-12-13T12:10:39;8.07;;;6.27;;
13218;SDS011;6674;49.152;11.918;2022-12-13T12:13:09;7.47;;;6.17;;
13218;SDS011;6674;49.152;11.918;2022-12-13T12:15:42;6.30;;;5.30;;
13218;SDS011;6674;49.152;11.918;2022-12-13T12:18:14;5.83;;;5.10;;
13218;SDS011;6674;49.152;11.918;2022-12-13T12:20:48;5.63;;;5.07;;
13218;SDS011;6674;49.152;11.918;2022-12-13T12:23:28;6.07;;;5.10;;
13218;SDS011;6674;49.152;11.918;2022-12-13T12:26:02;6.13;;;5.37;;
13218;SDS011;6674;49.152;11.918;2022-12-13T12:28:35;6.33;;;5.20;;
13218;SDS011;6674;49.152;11.918;2022-12-13T12:31:14;6.37;;;5.53;;
13218;SDS011;6674;49.152;11.918;2022-12-13T12:33:48;6.53;;;5.07;;
13218;SDS011;6674;49.152;11.918;2022-12-13T12:36:30;8.70;;;5.73;;
13218;SDS011;6674;49.152;11.918;2022-12-13T12:39:14;6.27;;;5.50;;
13218;SDS011;6674;49.152;11.918;2022-12-13T12:41:54;6.97;;;5.50;;
13218;SDS011;6674;49.152;11.918;2022-12-13T12:44:32;6.20;;;5.57;;
13218;SDS011;6674;49.152;11.918;2022-12-13T12:47:10;7.43;;;5.67;;
13218;SDS011;6674;49.152;11.918;2022-12-13T12:52:48;5.97;;;5.07;;
13218;SDS011;6674;49.152;11.918;2022-12-13T12:55:24;5.77;;;5.17;;
13218;SDS011;6674;49.152;11.918;2022-12-13T12:57:58;7.27;;;5.33;;
13218;SDS011;6674;49.152;11.918;2022-12-13T13:00:35;7.63;;;5.90;;
13218;SDS011;6674;49.152;11.918;2022-12-13T13:03:10;7.97;;;6.70;;
13218;SDS011;6674;49.152;11.918;2022-12-13T13:05:43;8.10;;;6.27;;
13218;SDS011;6674;49.152;11.918;2022-12-13T13:08:14;8.00;;;6.77;;
13218;SDS011;6674;49.152;11.918;2022-12-13T13:10:46;8.90;;;6.83;;
13218;SDS011;6674;49.152;11.918;2022-12-13T13:16:30;6.77;;;5.73;;
13218;SDS011;6674;49.152;11.918;2022-12-13T13:18:59;6.30;;;5.30;;
13218;SDS011;6674;49.152;11.918;2022-12-13T13:21:33;7.23;;;5.43;;
13218;SDS011;6674;49.152;11.918;2022-12-13T13:24:21;7.03;;;5.50;;
13218;SDS011;6674;49.152;11.918;2022-12-13T13:26:50;6.63;;;4.83;;
13218;SDS011;6674;49.152;11.918;2022-12-13T13:37:56;7.40;;;5.40;;
13218;SDS011;6674;49.152;11.918;2022-12-13T13:40:28;5.63;;;4.90;;
13218;SDS011;6674;49.152;11.918;2022-12-13T13:43:06;6.00;;;5.40;;
13218;SDS011;6674;49.152;11.918;2022-12-13T13:48:38;9.73;;;6.27;;
13218;SDS011;6674;49.152;11.918;2022-12-13T13:54:37;7.23;;;5.37;;
13218;SDS011;6674;49.152;11.918;2022-12-13T13:57:31;6.57;;;5.53;;
13218;SDS011;6674;49.152;11.918;2022-12-13T14:00:21;6.87;;;5.30;;
13218;SDS011;6674;49.152;11.918;2022-12-13T14:02:57;6.47;;;5.33;;
13218;SDS011;6674;49.152;11.918;2022-12-13T14:06:08;10.57;;;6.90;;
13218;SDS011;6674;49.152;11.918;2022-12-13T14:09:01;6.67;;;5.13;;
13218;SDS011;6674;49.152;11.918;2022-12-13T14:14:50;4.63;;;4.17;;
13218;SDS011;6674;49.152;11.918;2022-12-13T14:17:55;8.53;;;4.90;;
13218;SDS011;6674;49.152;11.918;2022-12-13T14:21:05;6.33;;;4.93;;
13218;SDS011;6674;49.152;11.918;2022-12-13T14:23:43;6.03;;;4.63;;
13218;SDS011;6674;49.152;11.918;2022-12-13T14:26:29;6.27;;;4.93;;
13218;SDS011;6674;49.152;11.918;2022-12-13T14:29:03;6.37;;;5.03;;
13218;SDS011;6674;49.152;11.918;2022-12-13T14:31:37;5.40;;;4.73;;
13218;SDS011;6674;49.152;11.918;2022-12-13T14:34:07;6.57;;;5.20;;
13218;SDS011;6674;49.152;11.918;2022-12-13T14:36:48;7.37;;;5.63;;
13218;SDS011;6674;49.152;11.918;2022-12-13T14:39:20;6.90;;;5.70;;
13218;SDS011;6674;49.152;11.918;2022-12-13T14:41:48;7.57;;;6.10;;
13218;SDS011;6674;49.152;11.918;2022-12-13T14:44:20;6.33;;;5.73;;
13218;SDS011;6674;49.152;11.918;2022-12-13T14:46:49;7.63;;;5.40;;
13218;SDS011;6674;49.152;11.918;2022-12-13T14:49:19;7.73;;;5.30;;
13218;SDS011;6674;49.152;11.918;2022-12-13T14:51:48;5.93;;;5.10;;
13218;SDS011;6674;49.152;11.918;2022-12-13T14:54:24;6.80;;;5.10;;
13218;SDS011;6674;49.152;11.918;2022-12-13T14:56:55;8.57;;;5.60;;
13218;SDS011;6674;49.152;11.918;2022-12-13T14:59:23;5.80;;;4.60;;
13218;SDS011;6674;49.152;11.918;2022-12-13T15:01:54;7.23;;;5.43;;
13218;SDS011;6674;49.152;11.918;2022-12-13T15:04:26;8.07;;;5.33;;
13218;SDS011;6674;49.152;11.918;2022-12-13T15:06:56;6.57;;;5.03;;
13218;SDS011;6674;49.152;11.918;2022-12-13T15:09:25;6.33;;;4.53;;
13218;SDS011;6674;49.152;11.918;2022-12-13T15:11:54;5.83;;;4.80;;
13218;SDS011;6674;49.152;11.918;2022-12-13T15:14:22;6.00;;;5.20;;
13218;SDS011;6674;49.152;11.918;2022-12-13T15:16:51;6.23;;;4.63;;
13218;SDS011;6674;49.152;11.918;2022-12-13T15:19:20;5.73;;;4.37;;
13218;SDS011;6674;49.152;11.918;2022-12-13T15:21:56;5.87;;;4.67;;
13218;SDS011;6674;49.152;11.918;2022-12-13T15:24:25;5.50;;;4.70;;
13218;SDS011;6674;49.152;11.918;2022-12-13T15:26:54;6.60;;;5.13;;
13218;SDS011;6674;49.152;11.918;2022-12-13T15:29:23;5.93;;;4.87;;